Time;durP1;ratioP1;P1;durP2;ratioP2;P2;SDS_P1;SDS_P2;PMS_P1;PMS_P2;Temp;Humidity;BMP_temperature;BMP_pressure;BME280_temperature;BME280_humidity;BME280_pressure;Samples;Min_cycle;Max_cycle;Signal;HPM_P1;HPM_P2
2023/10/02 00:01:06;;;;;;;;;;;;;;;;;;5072326;28;20358;-75
2023/10/02 00:03:33;;;;;;;;;;;;;;;;;;5064613;28;19928;-75
2023/10/02 00:06:00;;;;;;;;;;;;;;;;;;5065562;28;20063;-75
2023/10/02 00:08:39;;;;;;;;;;;;;;;;;;5063522;28;20002;-75
2023/10/02 00:11:06;;;;;;;;;;;;;;;;;;5055406;28;19932;-75
2023/10/02 00:13:32;;;;;;;;;;;;;;;;;;5072542;28;20387;-75
2023/10/02 00:16:00;;;;;;;;;;;;;;;;;;5072393;28;19936;-75
2023/10/02 00:18:27;;;;;;;;;;;;;;;;;;5071872;28;19924;-75
2023/10/02 00:21:17;;;;;;;;;;;;;;;;;;5071829;28;19931;-75
2023/10/02 00:23:59;;;;;;;;;;;;;;;;;;5068006;28;19931;-74
2023/10/02 00:26:26;;;;;;;;;;;;;;;;;;5057568;28;19924;-75
2023/10/02 00:28:53;;;;;;;;;;;;;;;;;;5059039;28;19925;-74
2023/10/02 00:31:35;;;;;;;;;;;;;;;;;;5085198;28;19974;-75
2023/10/02 00:34:02;;;;;;;;;;;;;;;;;;5072308;28;19970;-75
2023/10/02 00:36:30;;;;;;;;;;;;;;;;;;5071960;28;19982;-74
2023/10/02 00:38:58;;;;;;;;;;;;;;;;;;5070757;28;20015;-75
2023/10/02 00:41:24;;;;;;;;;;;;;;;;;;5064359;28;20379;-74
2023/10/02 00:43:51;;;;;;;;;;;;;;;;;;5056787;28;19978;-75
2023/10/02 00:46:23;;;;;;;;;;;;;;;;;;5052714;28;20339;-75
2023/10/02 00:48:51;;;;;;;;;;;;;;;;;;5063263;28;19986;-75
2023/10/02 00:51:17;;;;;;;;;;;;;;;;;;5071687;28;19925;-75
2023/10/02 00:53:48;;;;;;;;;;;;;;;;;;5070440;28;20436;-75
2023/10/02 00:56:20;;;;;;;;;;;;;;;;;;5074707;28;19928;-75
2023/10/02 00:58:48;;;;;;;;;;;;;;;;;;5066473;28;19970;-75
2023/10/02 01:01:17;;;;;;;;;;;;;;;;;;5060973;28;19970;-75
2023/10/02 01:06:25;;;;;;;;;;;;;;;;;;5071347;28;19986;-75
2023/10/02 01:08:52;;;;;;;;;;;;;;;;;;5069603;28;19928;-76
2023/10/02 01:11:20;;;;;;;;;;;;;;;;;;5070761;28;19925;-76
2023/10/02 01:13:47;;;;;;;;;;;;;;;;;;5071703;28;19951;-74
2023/10/02 01:16:17;;;;;;;;;;;;;;;;;;5056534;28;20366;-75
2023/10/02 01:18:44;;;;;;;;;;;;;;;;;;5070646;28;19991;-76
2023/10/02 01:21:11;;;;;;;;;;;;;;;;;;5069475;28;19925;-76
2023/10/02 01:23:38;;;;;;;;;;;;;;;;;;5077707;28;20019;-75
2023/10/02 01:26:05;;;;;;;;;;;;;;;;;;5092218;28;19931;-74
2023/10/02 01:28:49;;;;;;;;;;;;;;;;;;5084167;28;19970;-75
2023/10/02 01:31:31;;;;;;;;;;;;;;;;;;5071469;28;20007;-75
2023/10/02 01:33:59;;;;;;;;;;;;;;;;;;5067648;28;20336;-74
2023/10/02 01:36:28;;;;;;;;;;;;;;;;;;5058678;28;19924;-74
2023/10/02 01:38:59;;;;;;;;;;;;;;;;;;5070341;28;19924;-75
2023/10/02 01:41:27;;;;;;;;;;;;;;;;;;5071319;28;19925;-75
2023/10/02 01:43:55;;;;;;;;;;;;;;;;;;5071891;28;20339;-75
2023/10/02 01:46:22;;;;;;;;;;;;;;;;;;5072179;28;20399;-75
2023/10/02 01:48:50;;;;;;;;;;;;;;;;;;5067470;28;20316;-74
2023/10/02 01:51:21;;;;;;;;;;;;;;;;;;5079457;28;19924;-74
2023/10/02 01:53:48;;;;;;;;;;;;;;;;;;5073935;28;19942;-74
2023/10/02 01:56:16;;;;;;;;;;;;;;;;;;5075030;28;20439;-74
2023/10/02 01:58:44;;;;;;;;;;;;;;;;;;5075012;28;19924;-74
2023/10/02 02:01:11;;;;;;;;;;;;;;;;;;5073888;28;20345;-74
2023/10/02 02:03:38;;;;;;;;;;;;;;;;;;5072845;28;19924;-74
2023/10/02 02:06:09;;;;;;;;;;;;;;;;;;5073040;28;19933;-74
2023/10/02 02:08:36;;;;;;;;;;;;;;;;;;5062699;28;19967;-74
2023/10/02 02:11:14;;;;;;;;;;;;;;;;;;5074045;28;19924;-75
2023/10/02 02:13:44;;;;;;;;;;;;;;;;;;5075170;28;19924;-75
2023/10/02 02:16:11;;;;;;;;;;;;;;;;;;5077591;28;19932;-75
2023/10/02 02:18:42;;;;;;;;;;;;;;;;;;5077985;28;19930;-74
2023/10/02 02:21:10;;;;;;;;;;;;;;;;;;5072484;28;20264;-75
2023/10/02 02:23:37;;;;;;;;;;;;;;;;;;5069246;28;19925;-74
2023/10/02 02:26:06;;;;;;;;;;;;;;;;;;5072647;28;20011;-75
2023/10/02 02:28:43;;;;;;;;;;;;;;;;;;5074545;28;19924;-74
2023/10/02 02:31:29;;;;;;;;;;;;;;;;;;5073584;28;19970;-75
2023/10/02 02:33:57;;;;;;;;;;;;;;;;;;5074682;28;19946;-75
2023/10/02 02:36:25;;;;;;;;;;;;;;;;;;5074240;28;19924;-74
2023/10/02 02:39:05;;;;;;;;;;;;;;;;;;5073362;28;20358;-74
2023/10/02 02:41:34;;;;;;;;;;;;;;;;;;5061467;28;19933;-74
2023/10/02 02:44:01;;;;;;;;;;;;;;;;;;5090367;28;19931;-75
2023/10/02 02:46:29;;;;;;;;;;;;;;;;;;5078342;28;20344;-74
2023/10/02 02:48:57;;;;;;;;;;;;;;;;;;5076110;28;19984;-75
2023/10/02 02:51:24;;;;;;;;;;;;;;;;;;5073473;28;20027;-74
2023/10/02 02:53:52;;;;;;;;;;;;;;;;;;5071826;28;19924;-74
2023/10/02 02:56:22;;;;;;;;;;;;;;;;;;5072777;28;20442;-74
2023/10/02 02:58:49;;;;;;;;;;;;;;;;;;5061398;28;20023;-74
2023/10/02 03:01:21;;;;;;;;;;;;;;;;;;5074437;28;20020;-73
2023/10/02 03:03:49;;;;;;;;;;;;;;;;;;5073117;28;19966;-73
2023/10/02 03:06:18;;;;;;;;;;;;;;;;;;5073452;28;19925;-76
2023/10/02 03:08:45;;;;;;;;;;;;;;;;;;5073572;28;19928;-75
2023/10/02 03:11:12;;;;;;;;;;;;;;;;;;5078687;28;20333;-75
2023/10/02 03:13:40;;;;;;;;;;;;;;;;;;5094354;28;19932;-75
2023/10/02 03:16:08;;;;;;;;;;;;;;;;;;5062994;28;19993;-75
2023/10/02 03:18:36;;;;;;;;;;;;;;;;;;5067017;28;19947;-75
2023/10/02 03:21:14;;;;;;;;;;;;;;;;;;5057324;28;19925;-75
2023/10/02 03:23:42;;;;;;;;;;;;;;;;;;5054884;28;19925;-76
2023/10/02 03:26:09;;;;;;;;;;;;;;;;;;5062861;28;20291;-75
2023/10/02 03:28:38;;;;;;;;;;;;;;;;;;5061410;28;19986;-75
2023/10/02 03:31:05;;;;;;;;;;;;;;;;;;5066458;28;19924;-74
2023/10/02 03:33:32;;;;;;;;;;;;;;;;;;5058875;28;19977;-74
2023/10/02 03:36:07;;;;;;;;;;;;;;;;;;5071644;28;19924;-75
2023/10/02 03:38:35;;;;;;;;;;;;;;;;;;5072212;28;19924;-75
2023/10/02 03:41:02;;;;;;;;;;;;;;;;;;5081963;28;20366;-75
2023/10/02 03:43:35;;;;;;;;;;;;;;;;;;5073495;28;20007;-75
2023/10/02 03:46:04;;;;;;;;;;;;;;;;;;5071644;28;19929;-75
2023/10/02 03:48:31;;;;;;;;;;;;;;;;;;5071017;28;19928;-75
2023/10/02 03:50:58;;;;;;;;;;;;;;;;;;5064941;28;20371;-75
2023/10/02 03:53:30;;;;;;;;;;;;;;;;;;5072387;28;19928;-76
2023/10/02 03:55:59;;;;;;;;;;;;;;;;;;5070608;28;20307;-77
2023/10/02 03:58:38;;;;;;;;;;;;;;;;;;5071600;28;19928;-75
2023/10/02 04:01:08;;;;;;;;;;;;;;;;;;5072613;28;19931;-75
2023/10/02 04:03:52;;;;;;;;;;;;;;;;;;5072708;28;19944;-75
2023/10/02 04:06:21;;;;;;;;;;;;;;;;;;5066106;28;19925;-75
2023/10/02 04:09:06;;;;;;;;;;;;;;;;;;5069798;28;19925;-75
2023/10/02 04:11:33;;;;;;;;;;;;;;;;;;5070893;28;19925;-75
2023/10/02 04:14:00;;;;;;;;;;;;;;;;;;5072401;28;19924;-75
2023/10/02 04:16:31;;;;;;;;;;;;;;;;;;5052210;28;20011;-75
2023/10/02 04:19:00;;;;;;;;;;;;;;;;;;5054037;28;19925;-76
2023/10/02 04:21:27;;;;;;;;;;;;;;;;;;5060015;28;19924;-76
2023/10/02 04:23:54;;;;;;;;;;;;;;;;;;5056007;28;19928;-75
2023/10/02 04:26:20;;;;;;;;;;;;;;;;;;5070417;28;20383;-75
2023/10/02 04:28:54;;;;;;;;;;;;;;;;;;5072646;28;20276;-75
2023/10/02 04:31:21;;;;;;;;;;;;;;;;;;5070877;28;20368;-75
2023/10/02 04:33:52;;;;;;;;;;;;;;;;;;5060182;28;20028;-75
2023/10/02 04:36:28;;;;;;;;;;;;;;;;;;5092003;28;20341;-75
2023/10/02 04:38:57;;;;;;;;;;;;;;;;;;5075137;28;20413;-75
2023/10/02 04:41:26;;;;;;;;;;;;;;;;;;5066521;28;19924;-76
2023/10/02 04:43:57;;;;;;;;;;;;;;;;;;5071496;28;20322;-75
2023/10/02 04:46:25;;;;;;;;;;;;;;;;;;5071939;28;19964;-75
2023/10/02 04:48:59;;;;;;;;;;;;;;;;;;5071438;28;20129;-75
2023/10/02 04:51:28;;;;;;;;;;;;;;;;;;5072572;28;19998;-76
2023/10/02 04:53:57;;;;;;;;;;;;;;;;;;5070551;28;19924;-75
2023/10/02 04:56:24;;;;;;;;;;;;;;;;;;5069356;28;19978;-74
2023/10/02 04:58:51;;;;;;;;;;;;;;;;;;5066713;28;20436;-75
2023/10/02 05:01:34;;;;;;;;;;;;;;;;;;5076283;28;19978;-76
2023/10/02 05:04:02;;;;;;;;;;;;;;;;;;5086735;28;20306;-76
2023/10/02 05:06:52;;;;;;;;;;;;;;;;;;5071559;28;19978;-75
2023/10/02 05:09:25;;;;;;;;;;;;;;;;;;5071877;28;20376;-74
2023/10/02 05:11:55;;;;;;;;;;;;;;;;;;5070318;28;19924;-78
2023/10/02 05:14:29;;;;;;;;;;;;;;;;;;5068527;28;19978;-78
2023/10/02 05:17:16;;;;;;;;;;;;;;;;;;5068047;28;20324;-77
2023/10/02 05:19:57;;;;;;;;;;;;;;;;;;5073091;28;19925;-79
2023/10/02 05:22:24;;;;;;;;;;;;;;;;;;5068664;28;20431;-77
2023/10/02 05:24:58;;;;;;;;;;;;;;;;;;5068368;28;19942;-79
2023/10/02 05:27:29;;;;;;;;;;;;;;;;;;5072800;28;19932;-80
2023/10/02 05:29:56;;;;;;;;;;;;;;;;;;5085391;28;19924;-80
2023/10/02 05:32:29;;;;;;;;;;;;;;;;;;5059144;28;20015;-79
2023/10/02 05:35:06;;;;;;;;;;;;;;;;;;5062884;28;19925;-79
2023/10/02 05:37:33;;;;;;;;;;;;;;;;;;5067254;28;20380;-79
2023/10/02 05:40:37;;;;;;;;;;;;;;;;;;5067919;28;19925;-77
2023/10/02 05:43:10;;;;;;;;;;;;;;;;;;5073024;28;19946;-76
2023/10/02 05:45:39;;;;;;;;;;;;;;;;;;5069421;28;20027;-77
2023/10/02 05:48:07;;;;;;;;;;;;;;;;;;5071856;28;19925;-76
2023/10/02 05:50:34;;;;;;;;;;;;;;;;;;5062176;28;20019;-77
2023/10/02 05:53:04;;;;;;;;;;;;;;;;;;5070348;28;19943;-77
2023/10/02 05:55:54;;;;;;;;;;;;;;;;;;5060905;28;19931;-76
2023/10/02 05:58:27;;;;;;;;;;;;;;;;;;5065675;28;19932;-77
2023/10/02 06:00:54;;;;;;;;;;;;;;;;;;5071230;28;19925;-77
2023/10/02 06:03:21;;;;;;;;;;;;;;;;;;5071975;28;20260;-78
2023/10/02 06:06:10;;;;;;;;;;;;;;;;;;5065571;28;20047;-77
2023/10/02 06:08:40;;;;;;;;;;;;;;;;;;5059686;28;20289;-77
2023/10/02 06:11:25;;;;;;;;;;;;;;;;;;5065997;28;19946;-79
2023/10/02 06:13:54;;;;;;;;;;;;;;;;;;5060919;28;20011;-78
2023/10/02 06:16:23;;;;;;;;;;;;;;;;;;5071039;28;20353;-78
2023/10/02 06:19:00;;;;;;;;;;;;;;;;;;5058041;28;19928;-80
2023/10/02 06:21:27;;;;;;;;;;;;;;;;;;5069478;28;19932;-76
2023/10/02 06:23:56;;;;;;;;;;;;;;;;;;5062961;28;19925;-73
2023/10/02 06:26:26;;;;;;;;;;;;;;;;;;5069068;28;19978;-73
2023/10/02 06:29:13;;;;;;;;;;;;;;;;;;5064762;28;20016;-73
2023/10/02 06:31:42;;;;;;;;;;;;;;;;;;5063780;28;19963;-75
2023/10/02 06:34:11;;;;;;;;;;;;;;;;;;5066545;28;19982;-74
2023/10/02 06:36:45;;;;;;;;;;;;;;;;;;5061764;28;19932;-74
2023/10/02 06:39:13;;;;;;;;;;;;;;;;;;5065945;28;19925;-74
2023/10/02 06:41:40;;;;;;;;;;;;;;;;;;5065126;28;20384;-74
2023/10/02 06:44:14;;;;;;;;;;;;;;;;;;5065530;28;20851;-74
2023/10/02 06:46:52;;;;;;;;;;;;;;;;;;5063262;28;19932;-74
2023/10/02 06:49:20;;;;;;;;;;;;;;;;;;5056028;28;21062;-74
2023/10/02 06:51:49;;;;;;;;;;;;;;;;;;5061441;28;19924;-75
2023/10/02 06:54:16;;;;;;;;;;;;;;;;;;5060930;28;19928;-74
2023/10/02 06:56:44;;;;;;;;;;;;;;;;;;5056534;28;19928;-74
2023/10/02 06:59:11;;;;;;;;;;;;;;;;;;5060203;28;19978;-74
2023/10/02 07:02:01;;;;;;;;;;;;;;;;;;5065369;28;20008;-74
2023/10/02 07:04:29;;;;;;;;;;;;;;;;;;5070772;28;20004;-74
2023/10/02 07:07:02;;;;;;;;;;;;;;;;;;5066485;28;20402;-77
2023/10/02 07:09:31;;;;;;;;;;;;;;;;;;5062716;28;19925;-79
2023/10/02 07:12:08;;;;;;;;;;;;;;;;;;5064144;28;19924;-76
2023/10/02 07:14:36;;;;;;;;;;;;;;;;;;5064963;28;19924;-78
2023/10/02 07:17:12;;;;;;;;;;;;;;;;;;5064537;28;20342;-78
2023/10/02 07:19:39;;;;;;;;;;;;;;;;;;5063913;28;20015;-76
2023/10/02 07:22:16;;;;;;;;;;;;;;;;;;5059122;28;19939;-76
2023/10/02 07:24:45;;;;;;;;;;;;;;;;;;5058200;28;19929;-76
2023/10/02 07:27:22;;;;;;;;;;;;;;;;;;5063748;28;19936;-76
2023/10/02 07:29:51;;;;;;;;;;;;;;;;;;5057123;28;19932;-76
2023/10/02 07:32:18;;;;;;;;;;;;;;;;;;5064598;28;19933;-77
2023/10/02 07:34:46;;;;;;;;;;;;;;;;;;5058831;28;20407;-76
2023/10/02 07:37:16;;;;;;;;;;;;;;;;;;5066356;28;20023;-77
2023/10/02 07:39:43;;;;;;;;;;;;;;;;;;5060395;28;19925;-75
2023/10/02 07:42:11;;;;;;;;;;;;;;;;;;5068895;28;19928;-76
2023/10/02 07:44:38;;;;;;;;;;;;;;;;;;5060492;28;20023;-76
2023/10/02 07:47:10;;;;;;;;;;;;;;;;;;5066974;28;19929;-75
2023/10/02 07:49:37;;;;;;;;;;;;;;;;;;5064778;28;20288;-75
2023/10/02 07:52:05;;;;;;;;;;;;;;;;;;5065607;28;20306;-75
2023/10/02 07:54:44;;;;;;;;;;;;;;;;;;5061792;28;19955;-74
2023/10/02 07:57:13;;;;;;;;;;;;;;;;;;5067008;28;19996;-74
2023/10/02 07:59:40;;;;;;;;;;;;;;;;;;5068456;28;20571;-75
2023/10/02 08:02:21;;;;;;;;;;;;;;;;;;5062721;28;19970;-78
2023/10/02 08:04:48;;;;;;;;;;;;;;;;;;5061805;28;19933;-77
2023/10/02 08:07:16;;;;;;;;;;;;;;;;;;5061887;28;19935;-78
2023/10/02 08:09:47;;;;;;;;;;;;;;;;;;5063052;28;19932;-77
2023/10/02 08:12:29;;;;;;;;;;;;;;;;;;5064400;28;19932;-77
2023/10/02 08:14:57;;;;;;;;;;;;;;;;;;5052316;28;19982;-76
2023/10/02 08:17:27;;;;;;;;;;;;;;;;;;5057090;28;20276;-76
2023/10/02 08:19:59;;;;;;;;;;;;;;;;;;5057692;28;19968;-75
2023/10/02 08:22:27;;;;;;;;;;;;;;;;;;5062933;28;19925;-76
2023/10/02 08:24:56;;;;;;;;;;;;;;;;;;5063623;28;19950;-77
2023/10/02 08:27:23;;;;;;;;;;;;;;;;;;5061520;28;19931;-72
2023/10/02 08:29:50;;;;;;;;;;;;;;;;;;5068246;28;19978;-72
2023/10/02 08:32:28;;;;;;;;;;;;;;;;;;5060933;28;19924;-73
2023/10/02 08:34:55;;;;;;;;;;;;;;;;;;5054505;28;20390;-75
2023/10/02 08:37:23;;;;;;;;;;;;;;;;;;5065854;28;19925;-76
2023/10/02 08:39:51;;;;;;;;;;;;;;;;;;5069382;28;19925;-75
2023/10/02 08:42:18;;;;;;;;;;;;;;;;;;5070712;28;20383;-74
2023/10/02 08:44:45;;;;;;;;;;;;;;;;;;5056201;28;20314;-75
2023/10/02 08:47:24;;;;;;;;;;;;;;;;;;5065550;28;19974;-75
2023/10/02 08:50:03;;;;;;;;;;;;;;;;;;5064875;28;19929;-74
2023/10/02 08:52:38;;;;;;;;;;;;;;;;;;5063477;28;19924;-77
2023/10/02 08:55:26;;;;;;;;;;;;;;;;;;5060117;28;20003;-82
2023/10/02 08:57:55;;;;;;;;;;;;;;;;;;5067251;28;20354;-81
2023/10/02 09:00:24;;;;;;;;;;;;;;;;;;5070407;28;19931;-81
2023/10/02 09:02:54;;;;;;;;;;;;;;;;;;5074189;28;20388;-82
2023/10/02 09:05:21;;;;;;;;;;;;;;;;;;5072947;28;20372;-81
2023/10/02 09:08:01;;;;;;;;;;;;;;;;;;5074302;28;19924;-80
2023/10/02 09:10:30;;;;;;;;;;;;;;;;;;5069381;28;19971;-79
2023/10/02 09:13:01;;;;;;;;;;;;;;;;;;5067948;28;19932;-80
2023/10/02 09:15:29;;;;;;;;;;;;;;;;;;5066842;28;19966;-80
2023/10/02 09:17:57;;;;;;;;;;;;;;;;;;5069163;28;19928;-80
2023/10/02 09:20:38;;;;;;;;;;;;;;;;;;5071534;28;19925;-80
2023/10/02 09:23:08;;;;;;;;;;;;;;;;;;5071863;28;19975;-79
2023/10/02 09:25:37;;;;;;;;;;;;;;;;;;5069361;28;19932;-81
2023/10/02 09:28:13;;;;;;;;;;;;;;;;;;5062995;28;19982;-79
2023/10/02 09:30:41;;;;;;;;;;;;;;;;;;5065338;28;19994;-81
2023/10/02 09:33:10;;;;;;;;;;;;;;;;;;5061069;28;19986;-81
2023/10/02 09:35:42;;;;;;;;;;;;;;;;;;5071799;28;20462;-80
2023/10/02 09:38:10;;;;;;;;;;;;;;;;;;5073275;28;19935;-80
2023/10/02 09:40:58;;;;;;;;;;;;;;;;;;5064306;28;19948;-80
2023/10/02 09:43:25;;;;;;;;;;;;;;;;;;5070096;28;19986;-80
2023/10/02 09:45:53;;;;;;;;;;;;;;;;;;5056368;28;20019;-80
2023/10/02 09:51:06;;;;;;;;;;;;;;;;;;5064731;28;19931;-81
2023/10/02 09:53:34;;;;;;;;;;;;;;;;;;5067708;28;19935;-79
2023/10/02 09:56:01;;;;;;;;;;;;;;;;;;5071273;28;19924;-80
2023/10/02 09:58:28;;;;;;;;;;;;;;;;;;5062981;28;19925;-79
2023/10/02 10:00:55;;;;;;;;;;;;;;;;;;5060563;28;19924;-80
2023/10/02 10:03:22;;;;;;;;;;;;;;;;;;5058769;28;20339;-82
2023/10/02 10:05:53;;;;;;;;;;;;;;;;;;5067185;28;19924;-81
2023/10/02 10:08:30;;;;;;;;;;;;;;;;;;5070438;28;19963;-84
2023/10/02 10:11:10;;;;;;;;;;;;;;;;;;5066245;28;20041;-83
2023/10/02 10:13:46;;;;;;;;;;;;;;;;;;5068795;28;19967;-84
2023/10/02 10:16:18;;;;;;;;;;;;;;;;;;5059565;28;19978;-85
2023/10/02 10:18:45;;;;;;;;;;;;;;;;;;5056690;28;19959;-80
2023/10/02 10:21:12;;;;;;;;;;;;;;;;;;5064686;28;19929;-79
2023/10/02 10:23:40;;;;;;;;;;;;;;;;;;5075030;28;19924;-79
2023/10/02 10:26:07;;;;;;;;;;;;;;;;;;5074319;28;20014;-76
2023/10/02 10:28:50;;;;;;;;;;;;;;;;;;5069097;28;20015;-80
2023/10/02 10:31:16;;;;;;;;;;;;;;;;;;5055187;28;20024;-79
2023/10/02 10:33:45;;;;;;;;;;;;;;;;;;5057604;28;20023;-79
2023/10/02 10:36:13;;;;;;;;;;;;;;;;;;5065828;28;20359;-79
2023/10/02 10:38:44;;;;;;;;;;;;;;;;;;5062045;28;21057;-79
2023/10/02 10:41:14;;;;;;;;;;;;;;;;;;5062077;28;20015;-78
2023/10/02 10:43:56;;;;;;;;;;;;;;;;;;5062583;28;19925;-79
2023/10/02 10:46:23;;;;;;;;;;;;;;;;;;5068735;28;19924;-78
2023/10/02 10:48:53;;;;;;;;;;;;;;;;;;5070715;28;19924;-78
2023/10/02 10:51:21;;;;;;;;;;;;;;;;;;5068302;28;19936;-77
2023/10/02 10:53:52;;;;;;;;;;;;;;;;;;5070099;28;19925;-78
2023/10/02 10:56:19;;;;;;;;;;;;;;;;;;5067380;28;19924;-78
2023/10/02 10:58:47;;;;;;;;;;;;;;;;;;5065957;28;19944;-78
2023/10/02 11:01:16;;;;;;;;;;;;;;;;;;5065228;28;19931;-80
2023/10/02 11:03:43;;;;;;;;;;;;;;;;;;5059071;28;19931;-80
2023/10/02 11:06:11;;;;;;;;;;;;;;;;;;5060609;28;19932;-78
2023/10/02 11:08:38;;;;;;;;;;;;;;;;;;5064477;28;19927;-78
2023/10/02 11:11:06;;;;;;;;;;;;;;;;;;5070282;28;19970;-78
2023/10/02 11:13:50;;;;;;;;;;;;;;;;;;5066410;28;20288;-79
2023/10/02 11:16:17;;;;;;;;;;;;;;;;;;5062609;28;20027;-79
2023/10/02 11:18:44;;;;;;;;;;;;;;;;;;5068205;28;19925;-79
2023/10/02 11:21:21;;;;;;;;;;;;;;;;;;5072939;28;19928;-79
2023/10/02 11:23:48;;;;;;;;;;;;;;;;;;5070789;28;19924;-79
2023/10/02 11:26:15;;;;;;;;;;;;;;;;;;5060215;28;20575;-80
2023/10/02 11:28:44;;;;;;;;;;;;;;;;;;5064513;28;19925;-79
2023/10/02 11:31:11;;;;;;;;;;;;;;;;;;5069530;28;19979;-80
2023/10/02 11:33:40;;;;;;;;;;;;;;;;;;5067120;28;19978;-78
2023/10/02 11:36:11;;;;;;;;;;;;;;;;;;5073064;28;19925;-79
2023/10/02 11:38:38;;;;;;;;;;;;;;;;;;5073286;28;19940;-78
2023/10/02 11:41:05;;;;;;;;;;;;;;;;;;5073092;28;19933;-79
2023/10/02 11:43:34;;;;;;;;;;;;;;;;;;5069455;28;20037;-78
2023/10/02 11:46:01;;;;;;;;;;;;;;;;;;5070891;28;20458;-79
2023/10/02 11:48:28;;;;;;;;;;;;;;;;;;5069284;28;19970;-78
2023/10/02 11:50:55;;;;;;;;;;;;;;;;;;5069580;28;19929;-79
2023/10/02 11:53:22;;;;;;;;;;;;;;;;;;5068964;28;19930;-78
2023/10/02 11:55:50;;;;;;;;;;;;;;;;;;5072482;28;19946;-79
2023/10/02 11:58:17;;;;;;;;;;;;;;;;;;5057495;28;19928;-80
2023/10/02 12:00:44;;;;;;;;;;;;;;;;;;5054592;28;19971;-79
2023/10/02 12:03:11;;;;;;;;;;;;;;;;;;5060501;28;19974;-79
2023/10/02 12:05:38;;;;;;;;;;;;;;;;;;5067558;28;19928;-80
2023/10/02 12:08:05;;;;;;;;;;;;;;;;;;5065700;28;19974;-80
2023/10/02 12:10:32;;;;;;;;;;;;;;;;;;5068408;28;19978;-79
2023/10/02 12:13:02;;;;;;;;;;;;;;;;;;5069341;28;19924;-78
2023/10/02 12:15:29;;;;;;;;;;;;;;;;;;5053754;28;20390;-80
2023/10/02 12:17:56;;;;;;;;;;;;;;;;;;5069491;28;19924;-79
2023/10/02 12:20:23;;;;;;;;;;;;;;;;;;5070011;28;19974;-80
2023/10/02 12:22:50;;;;;;;;;;;;;;;;;;5070888;28;19967;-78
2023/10/02 12:25:18;;;;;;;;;;;;;;;;;;5070236;28;19925;-79
2023/10/02 12:27:45;;;;;;;;;;;;;;;;;;5061895;28;19931;-79
2023/10/02 12:30:12;;;;;;;;;;;;;;;;;;5052052;28;19924;-79
2023/10/02 12:32:40;;;;;;;;;;;;;;;;;;5058608;28;19924;-79
2023/10/02 12:35:07;;;;;;;;;;;;;;;;;;5065563;28;19924;-79
2023/10/02 12:37:34;;;;;;;;;;;;;;;;;;5066827;28;19924;-78
2023/10/02 12:40:01;;;;;;;;;;;;;;;;;;5062616;28;20445;-79
2023/10/02 12:42:29;;;;;;;;;;;;;;;;;;5067749;28;19924;-79
2023/10/02 12:44:56;;;;;;;;;;;;;;;;;;5060510;28;20292;-75
2023/10/02 12:47:25;;;;;;;;;;;;;;;;;;5064314;28;20375;-80
2023/10/02 12:49:54;;;;;;;;;;;;;;;;;;5070022;28;19925;-79
2023/10/02 12:52:22;;;;;;;;;;;;;;;;;;5060171;28;20407;-80
2023/10/02 12:54:49;;;;;;;;;;;;;;;;;;5053442;28;19929;-75
2023/10/02 12:57:16;;;;;;;;;;;;;;;;;;5069211;28;19924;-76
2023/10/02 12:59:43;;;;;;;;;;;;;;;;;;5063633;28;19933;-75
2023/10/02 13:02:10;;;;;;;;;;;;;;;;;;5066288;28;20510;-76
2023/10/02 13:04:37;;;;;;;;;;;;;;;;;;5066706;28;19936;-74
2023/10/02 13:07:05;;;;;;;;;;;;;;;;;;5060927;28;19939;-75
2023/10/02 13:09:32;;;;;;;;;;;;;;;;;;5051719;28;19924;-76
2023/10/02 13:12:00;;;;;;;;;;;;;;;;;;5060667;28;19947;-80
2023/10/02 13:14:27;;;;;;;;;;;;;;;;;;5064254;28;19930;-75
2023/10/02 13:16:54;;;;;;;;;;;;;;;;;;5054736;28;19924;-75
2023/10/02 13:19:21;;;;;;;;;;;;;;;;;;5067552;28;20710;-75
2023/10/02 13:21:52;;;;;;;;;;;;;;;;;;5064020;28;19928;-77
2023/10/02 13:24:23;;;;;;;;;;;;;;;;;;5057806;28;19925;-78
2023/10/02 13:26:50;;;;;;;;;;;;;;;;;;5066195;28;19960;-81
2023/10/02 13:29:18;;;;;;;;;;;;;;;;;;5055934;28;19925;-79
2023/10/02 13:31:47;;;;;;;;;;;;;;;;;;5066018;28;19925;-80
2023/10/02 13:34:14;;;;;;;;;;;;;;;;;;5070634;28;20372;-80
2023/10/02 13:36:41;;;;;;;;;;;;;;;;;;5071591;28;19925;-80
2023/10/02 13:39:13;;;;;;;;;;;;;;;;;;5061732;28;20383;-80
2023/10/02 13:41:40;;;;;;;;;;;;;;;;;;5061736;28;19943;-81
2023/10/02 13:44:07;;;;;;;;;;;;;;;;;;5061848;28;20391;-79
2023/10/02 13:46:38;;;;;;;;;;;;;;;;;;5060239;28;20384;-80
2023/10/02 13:49:05;;;;;;;;;;;;;;;;;;5066286;28;19924;-80
2023/10/02 13:51:32;;;;;;;;;;;;;;;;;;5065054;28;19925;-80
2023/10/02 13:53:59;;;;;;;;;;;;;;;;;;5064350;28;19924;-80
2023/10/02 13:56:28;;;;;;;;;;;;;;;;;;5064991;28;20048;-79
2023/10/02 13:58:55;;;;;;;;;;;;;;;;;;5067209;28;19977;-80
2023/10/02 14:01:24;;;;;;;;;;;;;;;;;;5063657;28;19928;-79
2023/10/02 14:03:51;;;;;;;;;;;;;;;;;;5070785;28;19925;-81
2023/10/02 14:06:19;;;;;;;;;;;;;;;;;;5071072;28;19946;-77
2023/10/02 14:08:46;;;;;;;;;;;;;;;;;;5069379;28;20398;-79
2023/10/02 14:11:13;;;;;;;;;;;;;;;;;;5070562;28;19924;-74
2023/10/02 14:13:40;;;;;;;;;;;;;;;;;;5063593;28;20402;-83
2023/10/02 14:16:07;;;;;;;;;;;;;;;;;;5065413;28;19925;-79
2023/10/02 14:18:35;;;;;;;;;;;;;;;;;;5058768;28;19983;-79
2023/10/02 14:21:04;;;;;;;;;;;;;;;;;;5063617;28;19936;-79
2023/10/02 14:23:31;;;;;;;;;;;;;;;;;;5069246;28;19924;-78
2023/10/02 14:25:59;;;;;;;;;;;;;;;;;;5065320;28;19936;-80
2023/10/02 14:28:26;;;;;;;;;;;;;;;;;;5060575;28;19987;-81
2023/10/02 14:30:53;;;;;;;;;;;;;;;;;;5059653;28;19944;-81
2023/10/02 14:33:22;;;;;;;;;;;;;;;;;;5060806;28;19933;-85
2023/10/02 14:35:49;;;;;;;;;;;;;;;;;;5063150;28;19924;-81
2023/10/02 14:38:16;;;;;;;;;;;;;;;;;;5065714;28;20296;-81
2023/10/02 14:40:43;;;;;;;;;;;;;;;;;;5064190;28;19950;-81
2023/10/02 14:43:12;;;;;;;;;;;;;;;;;;5066290;28;20443;-83
2023/10/02 14:45:39;;;;;;;;;;;;;;;;;;5061624;28;19924;-82
2023/10/02 14:48:06;;;;;;;;;;;;;;;;;;5067681;28;19932;-81
2023/10/02 14:50:34;;;;;;;;;;;;;;;;;;5058209;28;20370;-81
2023/10/02 14:53:01;;;;;;;;;;;;;;;;;;5059507;28;19925;-82
2023/10/02 14:55:28;;;;;;;;;;;;;;;;;;5062757;28;19982;-79
2023/10/02 14:57:55;;;;;;;;;;;;;;;;;;5059176;28;19940;-82
2023/10/02 15:00:22;;;;;;;;;;;;;;;;;;5056634;28;19924;-78
2023/10/02 15:02:50;;;;;;;;;;;;;;;;;;5063134;28;19925;-80
2023/10/02 15:05:18;;;;;;;;;;;;;;;;;;5057275;28;20410;-80
2023/10/02 15:07:45;;;;;;;;;;;;;;;;;;5059128;28;19970;-80
2023/10/02 15:10:12;;;;;;;;;;;;;;;;;;5058830;28;19951;-80
2023/10/02 15:12:40;;;;;;;;;;;;;;;;;;5063021;28;19956;-80
2023/10/02 15:15:13;;;;;;;;;;;;;;;;;;5059263;28;19971;-80
2023/10/02 15:17:41;;;;;;;;;;;;;;;;;;5058255;28;20307;-80
2023/10/02 15:20:12;;;;;;;;;;;;;;;;;;5069848;28;19937;-80
2023/10/02 15:22:39;;;;;;;;;;;;;;;;;;5063168;28;19952;-80
2023/10/02 15:25:06;;;;;;;;;;;;;;;;;;5068736;28;19924;-81
2023/10/02 15:27:33;;;;;;;;;;;;;;;;;;5064417;28;19932;-76
2023/10/02 15:30:00;;;;;;;;;;;;;;;;;;5067529;28;19958;-77
2023/10/02 15:32:27;;;;;;;;;;;;;;;;;;5062613;28;20000;-78
2023/10/02 15:34:54;;;;;;;;;;;;;;;;;;5054301;28;19932;-78
2023/10/02 15:37:24;;;;;;;;;;;;;;;;;;5060261;28;19929;-77
2023/10/02 15:39:51;;;;;;;;;;;;;;;;;;5065419;28;19925;-78
2023/10/02 15:42:18;;;;;;;;;;;;;;;;;;5059836;28;19924;-80
2023/10/02 15:44:45;;;;;;;;;;;;;;;;;;5061296;28;19926;-79
2023/10/02 15:47:12;;;;;;;;;;;;;;;;;;5065123;28;19970;-79
2023/10/02 15:49:39;;;;;;;;;;;;;;;;;;5055697;28;19924;-79
2023/10/02 15:52:06;;;;;;;;;;;;;;;;;;5063931;28;19928;-79
2023/10/02 15:54:33;;;;;;;;;;;;;;;;;;5058271;28;19925;-81
2023/10/02 15:57:03;;;;;;;;;;;;;;;;;;5060844;28;19925;-81
2023/10/02 15:59:30;;;;;;;;;;;;;;;;;;5067371;28;20376;-78
2023/10/02 16:01:57;;;;;;;;;;;;;;;;;;5064553;28;19932;-75
2023/10/02 16:04:24;;;;;;;;;;;;;;;;;;5062228;28;20058;-80
2023/10/02 16:06:51;;;;;;;;;;;;;;;;;;5064733;28;19950;-80
2023/10/02 16:09:21;;;;;;;;;;;;;;;;;;5062453;28;19925;-80
2023/10/02 16:11:48;;;;;;;;;;;;;;;;;;5062353;28;19931;-80
2023/10/02 16:14:15;;;;;;;;;;;;;;;;;;5063187;28;19925;-81
2023/10/02 16:16:42;;;;;;;;;;;;;;;;;;5061631;28;20368;-80
2023/10/02 16:19:09;;;;;;;;;;;;;;;;;;5065895;28;19933;-81
2023/10/02 16:21:36;;;;;;;;;;;;;;;;;;5060241;28;19928;-81
2023/10/02 16:24:05;;;;;;;;;;;;;;;;;;5063409;28;19977;-80
2023/10/02 16:26:32;;;;;;;;;;;;;;;;;;5067704;28;19924;-80
2023/10/02 16:29:01;;;;;;;;;;;;;;;;;;5061700;28;19950;-80
2023/10/02 16:31:28;;;;;;;;;;;;;;;;;;5063979;28;19925;-80
2023/10/02 16:33:56;;;;;;;;;;;;;;;;;;5063284;28;19924;-80
2023/10/02 16:36:23;;;;;;;;;;;;;;;;;;5056840;28;19932;-80
2023/10/02 16:38:51;;;;;;;;;;;;;;;;;;5068129;28;19924;-80
2023/10/02 16:41:18;;;;;;;;;;;;;;;;;;5069695;28;20380;-80
2023/10/02 16:43:45;;;;;;;;;;;;;;;;;;5070109;28;20000;-80
2023/10/02 16:46:12;;;;;;;;;;;;;;;;;;5064144;28;19925;-80
2023/10/02 16:48:41;;;;;;;;;;;;;;;;;;5066657;28;19963;-78
2023/10/02 16:51:08;;;;;;;;;;;;;;;;;;5066215;28;20340;-79
2023/10/02 16:53:36;;;;;;;;;;;;;;;;;;5068392;28;19929;-81
2023/10/02 16:56:04;;;;;;;;;;;;;;;;;;5061183;28;19939;-78
2023/10/02 16:58:31;;;;;;;;;;;;;;;;;;5062264;28;19932;-79
2023/10/02 17:00:59;;;;;;;;;;;;;;;;;;5069297;28;19928;-79
2023/10/02 17:03:26;;;;;;;;;;;;;;;;;;5071484;28;20387;-81
2023/10/02 17:05:54;;;;;;;;;;;;;;;;;;5063405;28;19924;-79
2023/10/02 17:08:21;;;;;;;;;;;;;;;;;;5059159;28;19924;-80